Meacham, OR

6:16 AM PST on November 22, 2014 (GMT -0800)
Meacham | Change Station
CLOSE
Current Station
Airport
Location: Meacham,
Elevation: 3720 ft
Nearby Weather Stations

Elev 3720 ft 45.51 °N, 118.42 °W | Updated 20 minutes ago

Rain
Rain
34 °F
Feels Like 34 °F
N
0
Wind Variable Wind from North

Today
High -- | Low -- °F
--% Chance of Precip.
Yesterday
High -- | Low -- °F
Precip. -- in
7:02 AM 4:16 PM
New Moon, 0% visible
Pressure 29.72 in
Visibility 1.0 miles
Clouds
Dew Point 33 °F
Humidity 96%
Rainfall 0.61 in
Snow Depth Not available.
UV Not available.
Pollen .10 out of 12
Air Quality Not available.
Flu Activity Not available.
METAR KMEH 221356Z AUTO 00000KT 1SM -SN BR VV009 01/01 A2967 RMK AO2 RAE32SNB32 SLP062 P0020 T00110006

More Conditions Fewer Conditions

Pressure 29.72 in
Visibility 1.0 miles
Clouds
Dew Point 33 °F
Humidity 96%
Rainfall 0.61 in
Snow Depth Not available.
UV Not available.
Pollen .10 out of 12
Air Quality Not available.
Flu Activity Not available.
METAR KMEH 221356Z AUTO 00000KT 1SM -SN BR VV009 01/01 A2967 RMK AO2 RAE32SNB32 SLP062 P0020 T00110006

More Conditions Fewer Conditions

10-Day Weather Forecast

Almanac

Astronomy

Nov. 22, 2014 Rise Set
Actual Time
Civil Twilight
Nautical Twilight
Astronomical Twilight
Moon
Length of Visible Light
Length of Day
Tomorrow will be .
, % of the Moon is Illuminated

Today's Extremes

State Highs State Lows

Community

WunderPhotos

Upload Photos

1,772,818 photos uploaded!

WunderBlogs® & News

Nearby

Air Quality

  Air Quality AQ Index Pollutant
Not available.

Snow Depth

Station Depth Elevation

Earthquake Activity

City Distance Mag. Time & Date
Minimum magnitude displayed is 2.5.

Coastal Water Temperatures

Place Temperature

Nearby Weather Stations